createdAt,value
2022-12-09T00:02:08.396Z,52.26
2022-12-09T00:07:13.972Z,52.38
2022-12-09T00:12:21.451Z,52.11
2022-12-09T00:17:26.766Z,52.30
2022-12-09T00:22:37.013Z,52.89
2022-12-09T00:27:44.381Z,53.30
2022-12-09T00:32:48.360Z,53.07
2022-12-09T00:37:52.515Z,53.06
2022-12-09T00:42:54.163Z,53.50
2022-12-09T00:47:58.016Z,53.59
2022-12-09T00:53:07.283Z,53.42
2022-12-09T00:58:11.554Z,53.50
2022-12-09T01:03:20.222Z,53.85
2022-12-09T01:08:22.340Z,53.90
2022-12-09T01:13:24.010Z,53.50
2022-12-09T01:18:32.169Z,53.92
2022-12-09T01:23:34.242Z,53.83
2022-12-09T01:28:38.855Z,54.06
2022-12-09T01:33:53.495Z,54.45
2022-12-09T01:38:58.250Z,53.75
2022-12-09T01:44:34.608Z,54.32
2022-12-09T01:49:48.514Z,54.13
2022-12-09T01:54:56.241Z,53.73
2022-12-09T02:00:00.284Z,53.66
2022-12-09T02:05:06.862Z,53.94
2022-12-09T02:10:18.073Z,54.24
2022-12-09T02:15:51.721Z,54.46
2022-12-09T02:21:19.896Z,53.31
2022-12-09T02:27:01.131Z,53.37
2022-12-09T02:32:34.292Z,54.14
2022-12-09T02:37:57.116Z,53.98
2022-12-09T02:43:06.558Z,53.49
2022-12-09T02:48:16.503Z,53.83
2022-12-09T02:53:27.180Z,54.02
2022-12-09T02:58:34.715Z,53.63
2022-12-09T03:03:39.317Z,53.76
2022-12-09T03:09:01.025Z,53.54
2022-12-09T03:14:11.911Z,54.02
2022-12-09T03:19:41.011Z,53.52
2022-12-09T03:24:53.094Z,53.84
2022-12-09T03:30:01.502Z,53.91
2022-12-09T03:35:23.214Z,53.87
2022-12-09T03:40:30.691Z,53.57
2022-12-09T03:45:37.183Z,53.81
2022-12-09T03:50:49.280Z,53.31
2022-12-09T03:56:27.155Z,53.99
2022-12-09T04:01:34.516Z,53.70
2022-12-09T04:06:37.172Z,53.33
2022-12-09T04:11:42.238Z,53.85
2022-12-09T04:16:54.128Z,53.64
2022-12-09T04:21:58.289Z,53.41
2022-12-09T04:27:12.608Z,53.62
2022-12-09T04:32:21.909Z,53.64
2022-12-09T04:37:33.689Z,53.61
2022-12-09T04:42:39.027Z,53.29
2022-12-09T04:47:46.169Z,53.17
2022-12-09T04:52:50.886Z,53.33
2022-12-09T04:58:00.644Z,53.42
2022-12-09T05:03:08.244Z,53.49
2022-12-09T05:08:22.912Z,53.26
2022-12-09T05:13:35.905Z,53.25
2022-12-09T05:18:38.307Z,53.25
2022-12-09T05:23:46.597Z,53.41
2022-12-09T05:28:52.347Z,53.27
2022-12-09T05:33:57.115Z,53.38
2022-12-09T05:39:06.729Z,53.41
2022-12-09T05:44:16.462Z,53.19
2022-12-09T05:49:18.674Z,53.40
2022-12-09T05:54:27.329Z,53.37
2022-12-09T05:59:32.812Z,53.27
2022-12-09T06:04:39.270Z,53.53
2022-12-09T06:09:51.153Z,53.76
2022-12-09T06:14:53.253Z,53.43
2022-12-09T06:19:54.893Z,53.35
2022-12-09T06:25:01.724Z,53.43
2022-12-09T06:30:18.655Z,53.81
2022-12-09T06:35:23.768Z,53.39
2022-12-09T06:40:30.116Z,53.19
2022-12-09T06:45:36.074Z,53.33
2022-12-09T06:50:41.066Z,53.31
2022-12-09T06:55:48.787Z,53.06
2022-12-09T07:01:17.345Z,52.94
2022-12-09T07:06:28.760Z,53.50
2022-12-09T07:11:31.065Z,53.07
2022-12-09T07:21:53.966Z,52.75
2022-12-09T07:27:04.707Z,52.91
2022-12-09T07:32:24.375Z,52.91
2022-12-09T07:37:26.374Z,52.87
2022-12-09T07:42:31.875Z,52.82
2022-12-09T07:47:38.475Z,53.02
2022-12-09T07:52:55.536Z,52.95
2022-12-09T07:58:00.252Z,52.68
2022-12-09T08:03:06.566Z,52.70
2022-12-09T08:08:10.964Z,52.53
2022-12-09T08:13:18.840Z,52.63
2022-12-09T08:18:30.344Z,52.26
2022-12-09T08:23:40.422Z,52.38
2022-12-09T08:28:52.367Z,52.54
2022-12-09T08:34:02.327Z,52.53
2022-12-09T08:39:06.052Z,52.19
2022-12-09T08:44:16.542Z,51.86
2022-12-09T08:49:23.345Z,52.47
2022-12-09T08:54:27.487Z,52.57
2022-12-09T08:59:29.517Z,52.19
2022-12-09T09:04:31.890Z,52.54
2022-12-09T09:09:38.824Z,52.80
2022-12-09T09:14:52.883Z,52.78
2022-12-09T09:19:56.805Z,52.78
2022-12-09T09:25:06.852Z,52.92
2022-12-09T09:30:09.830Z,52.39
2022-12-09T09:35:18.820Z,52.52
2022-12-09T09:40:23.363Z,51.81
2022-12-09T09:45:29.551Z,52.33
2022-12-09T09:51:07.927Z,51.86
2022-12-09T09:56:36.838Z,51.79
2022-12-09T10:01:55.056Z,52.18
2022-12-09T10:07:07.919Z,51.77
2022-12-09T10:12:27.033Z,51.62
2022-12-09T10:17:55.428Z,51.30
2022-12-09T10:23:01.945Z,51.67
2022-12-09T10:28:29.271Z,51.54
2022-12-09T10:33:42.928Z,51.11
2022-12-09T10:38:48.173Z,51.23
2022-12-09T10:43:52.487Z,51.53
2022-12-09T10:49:01.555Z,51.64
2022-12-09T10:54:52.976Z,51.46
2022-12-09T10:59:59.516Z,51.11
2022-12-09T11:05:30.190Z,51.54
2022-12-09T11:10:39.147Z,51.00
2022-12-09T11:15:52.824Z,51.18
2022-12-09T11:21:08.140Z,51.10
2022-12-09T11:26:33.802Z,50.29
2022-12-09T11:31:44.474Z,51.12
2022-12-09T11:36:52.252Z,50.77
2022-12-09T11:42:19.258Z,50.86
2022-12-09T11:47:44.865Z,50.91
2022-12-09T11:53:31.542Z,50.14
2022-12-09T11:58:52.394Z,50.42
2022-12-09T12:04:02.868Z,50.31
2022-12-09T12:09:18.129Z,50.36
2022-12-09T12:14:29.522Z,50.51
2022-12-09T12:19:41.320Z,50.18
2022-12-09T12:25:18.307Z,50.20
2022-12-09T12:30:41.088Z,49.70
2022-12-09T12:35:57.312Z,49.91
2022-12-09T12:41:10.419Z,49.57
2022-12-09T12:46:43.195Z,49.54
2022-12-09T12:52:47.547Z,49.26
2022-12-09T12:58:06.558Z,49.52
2022-12-09T13:03:15.370Z,49.26
2022-12-09T13:08:25.730Z,49.21
2022-12-09T13:13:55.085Z,48.82
2022-12-09T13:19:09.218Z,49.63
2022-12-09T13:25:08.261Z,49.30
2022-12-09T13:30:23.094Z,49.57
2022-12-09T13:36:06.303Z,49.31
2022-12-09T13:41:49.184Z,49.05
2022-12-09T13:46:54.385Z,49.38
2022-12-09T13:51:59.892Z,49.34
2022-12-09T13:57:29.800Z,48.62
2022-12-09T14:03:01.671Z,48.95
2022-12-09T14:08:22.429Z,49.06
2022-12-09T14:13:35.338Z,49.36
2022-12-09T14:18:45.947Z,49.00
2022-12-09T14:24:11.362Z,49.28
2022-12-09T14:29:54.040Z,49.26
2022-12-09T14:35:12.057Z,49.57
2022-12-09T14:40:30.085Z,49.67
2022-12-09T14:46:01.126Z,49.76
2022-12-09T14:51:16.277Z,49.73
2022-12-09T14:56:22.706Z,49.56
2022-12-09T15:01:26.583Z,50.09
2022-12-09T15:06:35.201Z,50.30
2022-12-09T15:11:40.932Z,50.20
2022-12-09T15:16:51.226Z,50.05
2022-12-09T15:21:53.138Z,50.03
2022-12-09T15:27:07.594Z,50.33
2022-12-09T15:32:27.666Z,50.32
2022-12-09T15:37:35.657Z,50.37
2022-12-09T15:42:44.214Z,50.88
2022-12-09T15:48:01.268Z,50.95
2022-12-09T15:53:27.307Z,50.97
2022-12-09T15:58:40.740Z,51.10
2022-12-09T16:03:52.653Z,51.54
2022-12-09T16:08:57.918Z,51.67
2022-12-09T16:14:02.102Z,51.77
2022-12-09T16:19:05.955Z,52.28
2022-12-09T16:24:14.153Z,52.33
2022-12-09T16:29:29.303Z,52.62
2022-12-09T16:34:33.968Z,52.56
2022-12-09T16:39:40.680Z,52.73
2022-12-09T16:44:44.749Z,52.71
2022-12-09T16:49:58.542Z,52.72
2022-12-09T16:55:00.085Z,52.24
2022-12-09T17:00:03.598Z,52.64
2022-12-09T17:05:27.271Z,52.51
2022-12-09T17:10:31.309Z,52.62
2022-12-09T17:15:32.865Z,52.55
2022-12-09T17:20:38.388Z,52.72
2022-12-09T17:25:58.065Z,52.50
2022-12-09T17:31:01.216Z,52.53
2022-12-09T17:36:06.363Z,52.66
2022-12-09T17:41:13.095Z,52.74
2022-12-09T17:46:22.721Z,52.94
2022-12-09T17:51:35.372Z,52.77
2022-12-09T17:56:44.208Z,52.92
2022-12-09T18:01:51.039Z,53.03
2022-12-09T18:06:54.565Z,52.61
2022-12-09T18:12:06.491Z,52.66
2022-12-09T18:17:10.440Z,52.94
2022-12-09T18:22:15.005Z,53.26
2022-12-09T18:27:19.255Z,53.22
2022-12-09T18:32:20.757Z,53.14
2022-12-09T18:37:29.035Z,53.05
2022-12-09T18:42:33.596Z,52.61
2022-12-09T18:47:35.161Z,52.82
2022-12-09T18:52:40.639Z,53.16
2022-12-09T18:57:44.823Z,52.93
2022-12-09T19:02:47.721Z,52.80
2022-12-09T19:08:04.078Z,53.09
2022-12-09T19:13:10.064Z,53.18
2022-12-09T19:18:14.342Z,53.20
2022-12-09T19:23:33.813Z,52.82
2022-12-09T19:28:36.619Z,53.33
2022-12-09T19:33:53.046Z,52.92
2022-12-09T19:38:57.123Z,53.06
2022-12-09T19:44:00.094Z,53.03
2022-12-09T19:49:16.241Z,52.72
2022-12-09T19:54:26.713Z,52.84
2022-12-09T19:59:30.060Z,53.01
2022-12-09T20:04:51.130Z,53.33
2022-12-09T20:10:11.082Z,53.05
2022-12-09T20:15:17.498Z,52.88
2022-12-09T20:20:19.289Z,53.10
2022-12-09T20:25:24.980Z,52.93
2022-12-09T20:30:27.728Z,52.99
2022-12-09T20:35:31.841Z,53.28
2022-12-09T20:40:40.779Z,53.27
2022-12-09T20:45:49.257Z,53.58
2022-12-09T20:50:59.044Z,53.46
2022-12-09T20:56:07.635Z,53.40
2022-12-09T21:01:19.472Z,53.42
2022-12-09T21:06:37.577Z,53.75
2022-12-09T21:11:42.782Z,53.55
2022-12-09T21:17:02.188Z,53.56
2022-12-09T21:22:06.281Z,53.58
2022-12-09T21:27:12.016Z,53.88
2022-12-09T21:32:13.604Z,53.72
2022-12-09T21:37:15.280Z,53.26
2022-12-09T21:42:16.959Z,53.73
2022-12-09T21:47:18.516Z,53.34
2022-12-09T21:52:26.164Z,53.69
2022-12-09T21:57:31.738Z,53.64
2022-12-09T22:02:44.489Z,53.60
2022-12-09T22:07:54.340Z,53.16
2022-12-09T22:12:55.978Z,53.43
2022-12-09T22:18:10.882Z,53.64
2022-12-09T22:23:17.202Z,53.29
2022-12-09T22:28:23.421Z,53.58
2022-12-09T22:33:30.112Z,53.26
2022-12-09T22:38:37.658Z,53.17
2022-12-09T22:43:40.438Z,52.90
2022-12-09T22:48:45.541Z,53.13
2022-12-09T22:53:53.274Z,53.04
2022-12-09T22:59:09.503Z,53.30
2022-12-09T23:04:17.942Z,53.28
2022-12-09T23:09:25.476Z,53.06
2022-12-09T23:14:29.093Z,53.12
2022-12-09T23:19:33.200Z,53.56
2022-12-09T23:24:37.589Z,53.57
2022-12-09T23:29:39.180Z,53.51
2022-12-09T23:34:51.579Z,53.78
2022-12-09T23:40:00.308Z,53.86
2022-12-09T23:45:01.886Z,54.01
2022-12-09T23:50:08.574Z,53.95
2022-12-09T23:55:16.818Z,54.20
